sensor_id;sensor_type;location;lat;lon;timestamp;P1;durP1;ratioP1;P2;durP2;ratioP2
12972;SDS011;6551;51.056;9.466;2023-01-15T00:01:26;0.67;;;0.57;;
12972;SDS011;6551;51.056;9.466;2023-01-15T00:03:56;1.00;;;0.60;;
12972;SDS011;6551;51.056;9.466;2023-01-15T00:06:24;3.10;;;0.60;;
12972;SDS011;6551;51.056;9.466;2023-01-15T00:08:52;0.40;;;0.40;;
12972;SDS011;6551;51.056;9.466;2023-01-15T00:11:18;0.50;;;0.50;;
12972;SDS011;6551;51.056;9.466;2023-01-15T00:13:46;0.80;;;0.63;;
12972;SDS011;6551;51.056;9.466;2023-01-15T00:16:14;0.77;;;0.63;;
12972;SDS011;6551;51.056;9.466;2023-01-15T00:18:54;1.30;;;0.80;;
12972;SDS011;6551;51.056;9.466;2023-01-15T00:21:23;2.20;;;0.73;;
12972;SDS011;6551;51.056;9.466;2023-01-15T00:23:52;1.47;;;0.73;;
12972;SDS011;6551;51.056;9.466;2023-01-15T00:26:38;1.20;;;0.80;;
12972;SDS011;6551;51.056;9.466;2023-01-15T00:29:24;1.07;;;0.83;;
12972;SDS011;6551;51.056;9.466;2023-01-15T00:32:03;1.20;;;0.90;;
12972;SDS011;6551;51.056;9.466;2023-01-15T00:34:33;1.20;;;0.70;;
12972;SDS011;6551;51.056;9.466;2023-01-15T00:36:59;1.10;;;0.90;;
12972;SDS011;6551;51.056;9.466;2023-01-15T00:39:26;2.40;;;0.80;;
12972;SDS011;6551;51.056;9.466;2023-01-15T00:41:52;0.57;;;0.40;;
12972;SDS011;6551;51.056;9.466;2023-01-15T00:44:19;0.60;;;0.47;;
12972;SDS011;6551;51.056;9.466;2023-01-15T00:46:46;0.50;;;0.27;;
12972;SDS011;6551;51.056;9.466;2023-01-15T00:49:13;1.53;;;0.30;;
12972;SDS011;6551;51.056;9.466;2023-01-15T00:51:39;0.40;;;0.40;;
12972;SDS011;6551;51.056;9.466;2023-01-15T00:54:05;0.50;;;0.40;;
12972;SDS011;6551;51.056;9.466;2023-01-15T00:56:31;0.50;;;0.50;;
12972;SDS011;6551;51.056;9.466;2023-01-15T00:59:00;0.73;;;0.40;;
12972;SDS011;6551;51.056;9.466;2023-01-15T01:01:28;0.40;;;0.20;;
12972;SDS011;6551;51.056;9.466;2023-01-15T01:03:55;0.43;;;0.30;;
12972;SDS011;6551;51.056;9.466;2023-01-15T01:06:21;0.50;;;0.40;;
12972;SDS011;6551;51.056;9.466;2023-01-15T01:08:48;0.70;;;0.30;;
12972;SDS011;6551;51.056;9.466;2023-01-15T01:11:15;1.00;;;0.40;;
12972;SDS011;6551;51.056;9.466;2023-01-15T01:13:45;0.50;;;0.50;;
12972;SDS011;6551;51.056;9.466;2023-01-15T01:18:48;2.00;;;0.40;;
12972;SDS011;6551;51.056;9.466;2023-01-15T01:21:15;0.50;;;0.30;;
12972;SDS011;6551;51.056;9.466;2023-01-15T01:23:43;0.43;;;0.30;;
12972;SDS011;6551;51.056;9.466;2023-01-15T01:26:09;1.00;;;0.40;;
12972;SDS011;6551;51.056;9.466;2023-01-15T01:28:35;1.70;;;0.50;;
12972;SDS011;6551;51.056;9.466;2023-01-15T01:31:04;0.83;;;0.40;;
12972;SDS011;6551;51.056;9.466;2023-01-15T01:33:31;2.07;;;0.50;;
12972;SDS011;6551;51.056;9.466;2023-01-15T01:35:58;1.27;;;0.70;;
12972;SDS011;6551;51.056;9.466;2023-01-15T01:38:24;1.03;;;0.60;;
12972;SDS011;6551;51.056;9.466;2023-01-15T01:40:52;0.73;;;0.40;;
12972;SDS011;6551;51.056;9.466;2023-01-15T01:43:19;0.77;;;0.30;;
12972;SDS011;6551;51.056;9.466;2023-01-15T01:45:50;1.20;;;0.40;;
12972;SDS011;6551;51.056;9.466;2023-01-15T01:48:17;1.27;;;0.40;;
12972;SDS011;6551;51.056;9.466;2023-01-15T01:50:49;1.60;;;0.43;;
12972;SDS011;6551;51.056;9.466;2023-01-15T01:53:19;0.60;;;0.40;;
12972;SDS011;6551;51.056;9.466;2023-01-15T01:55:49;1.03;;;0.40;;
12972;SDS011;6551;51.056;9.466;2023-01-15T01:58:15;0.60;;;0.50;;
12972;SDS011;6551;51.056;9.466;2023-01-15T02:00:45;0.40;;;0.33;;
12972;SDS011;6551;51.056;9.466;2023-01-15T02:03:15;1.73;;;0.60;;
12972;SDS011;6551;51.056;9.466;2023-01-15T02:05:46;1.23;;;0.50;;
12972;SDS011;6551;51.056;9.466;2023-01-15T02:08:16;2.37;;;0.60;;
12972;SDS011;6551;51.056;9.466;2023-01-15T02:10:49;0.63;;;0.50;;
12972;SDS011;6551;51.056;9.466;2023-01-15T02:13:20;0.70;;;0.30;;
12972;SDS011;6551;51.056;9.466;2023-01-15T02:18:50;0.30;;;0.20;;
12972;SDS011;6551;51.056;9.466;2023-01-15T02:27:43;1.53;;;0.30;;
12972;SDS011;6551;51.056;9.466;2023-01-15T02:30:17;0.40;;;0.30;;
12972;SDS011;6551;51.056;9.466;2023-01-15T02:33:07;0.20;;;0.20;;
12972;SDS011;6551;51.056;9.466;2023-01-15T02:38:19;1.63;;;0.30;;
12972;SDS011;6551;51.056;9.466;2023-01-15T02:40:49;1.17;;;0.30;;
12972;SDS011;6551;51.056;9.466;2023-01-15T02:43:22;1.23;;;0.20;;
12972;SDS011;6551;51.056;9.466;2023-01-15T02:45:53;0.30;;;0.20;;
12972;SDS011;6551;51.056;9.466;2023-01-15T02:48:23;1.23;;;0.30;;
12972;SDS011;6551;51.056;9.466;2023-01-15T02:50:58;1.90;;;0.20;;
12972;SDS011;6551;51.056;9.466;2023-01-15T02:53:32;0.70;;;0.20;;
12972;SDS011;6551;51.056;9.466;2023-01-15T02:56:07;0.97;;;0.30;;
12972;SDS011;6551;51.056;9.466;2023-01-15T02:58:49;0.47;;;0.20;;
12972;SDS011;6551;51.056;9.466;2023-01-15T03:01:22;1.00;;;0.23;;
12972;SDS011;6551;51.056;9.466;2023-01-15T03:06:51;0.97;;;0.23;;
12972;SDS011;6551;51.056;9.466;2023-01-15T03:09:46;0.20;;;0.20;;
12972;SDS011;6551;51.056;9.466;2023-01-15T03:12:14;0.43;;;0.20;;
12972;SDS011;6551;51.056;9.466;2023-01-15T03:15:21;0.70;;;0.23;;
12972;SDS011;6551;51.056;9.466;2023-01-15T03:18:11;0.80;;;0.30;;
12972;SDS011;6551;51.056;9.466;2023-01-15T03:20:41;0.73;;;0.30;;
12972;SDS011;6551;51.056;9.466;2023-01-15T03:23:14;0.20;;;0.20;;
12972;SDS011;6551;51.056;9.466;2023-01-15T03:25:45;0.30;;;0.20;;
12972;SDS011;6551;51.056;9.466;2023-01-15T03:28:17;0.20;;;0.20;;
12972;SDS011;6551;51.056;9.466;2023-01-15T03:30:49;0.20;;;0.20;;
12972;SDS011;6551;51.056;9.466;2023-01-15T03:33:17;0.57;;;0.30;;
12972;SDS011;6551;51.056;9.466;2023-01-15T03:35:47;0.20;;;0.20;;
12972;SDS011;6551;51.056;9.466;2023-01-15T03:38:23;0.50;;;0.20;;
12972;SDS011;6551;51.056;9.466;2023-01-15T03:43:23;0.30;;;0.20;;
12972;SDS011;6551;51.056;9.466;2023-01-15T03:46:13;0.40;;;0.20;;
12972;SDS011;6551;51.056;9.466;2023-01-15T03:48:43;0.20;;;0.20;;
12972;SDS011;6551;51.056;9.466;2023-01-15T03:51:46;1.13;;;0.20;;
12972;SDS011;6551;51.056;9.466;2023-01-15T03:54:32;0.50;;;0.30;;
12972;SDS011;6551;51.056;9.466;2023-01-15T04:00:24;0.30;;;0.23;;
12972;SDS011;6551;51.056;9.466;2023-01-15T04:02:54;0.43;;;0.20;;
12972;SDS011;6551;51.056;9.466;2023-01-15T04:05:22;0.40;;;0.20;;
12972;SDS011;6551;51.056;9.466;2023-01-15T04:07:52;0.20;;;0.10;;
12972;SDS011;6551;51.056;9.466;2023-01-15T04:10:20;0.33;;;0.10;;
12972;SDS011;6551;51.056;9.466;2023-01-15T04:12:47;1.47;;;0.20;;
12972;SDS011;6551;51.056;9.466;2023-01-15T04:15:14;0.20;;;0.20;;
12972;SDS011;6551;51.056;9.466;2023-01-15T04:17:44;0.40;;;0.20;;
12972;SDS011;6551;51.056;9.466;2023-01-15T04:20:10;0.40;;;0.10;;
12972;SDS011;6551;51.056;9.466;2023-01-15T04:22:36;0.40;;;0.30;;
12972;SDS011;6551;51.056;9.466;2023-01-15T04:25:04;0.30;;;0.20;;
12972;SDS011;6551;51.056;9.466;2023-01-15T04:27:31;0.20;;;0.20;;
12972;SDS011;6551;51.056;9.466;2023-01-15T04:29:57;0.27;;;0.20;;
12972;SDS011;6551;51.056;9.466;2023-01-15T04:32:23;1.47;;;0.30;;
12972;SDS011;6551;51.056;9.466;2023-01-15T04:34:49;1.43;;;0.30;;
12972;SDS011;6551;51.056;9.466;2023-01-15T04:37:16;1.00;;;0.90;;
12972;SDS011;6551;51.056;9.466;2023-01-15T04:39:43;0.40;;;0.10;;
12972;SDS011;6551;51.056;9.466;2023-01-15T04:42:11;1.60;;;0.30;;
12972;SDS011;6551;51.056;9.466;2023-01-15T04:45:02;2.23;;;1.13;;
12972;SDS011;6551;51.056;9.466;2023-01-15T04:47:29;1.90;;;1.60;;
12972;SDS011;6551;51.056;9.466;2023-01-15T04:49:55;0.67;;;0.50;;
12972;SDS011;6551;51.056;9.466;2023-01-15T04:52:21;1.20;;;0.97;;
12972;SDS011;6551;51.056;9.466;2023-01-15T04:54:47;2.77;;;0.90;;
12972;SDS011;6551;51.056;9.466;2023-01-15T04:57:13;1.43;;;1.10;;
12972;SDS011;6551;51.056;9.466;2023-01-15T04:59:40;0.87;;;0.20;;
12972;SDS011;6551;51.056;9.466;2023-01-15T05:02:06;1.77;;;1.17;;
12972;SDS011;6551;51.056;9.466;2023-01-15T05:04:32;3.07;;;1.70;;
12972;SDS011;6551;51.056;9.466;2023-01-15T05:06:59;1.93;;;1.17;;
12972;SDS011;6551;51.056;9.466;2023-01-15T05:09:28;4.03;;;1.80;;
12972;SDS011;6551;51.056;9.466;2023-01-15T05:11:55;2.37;;;1.40;;
12972;SDS011;6551;51.056;9.466;2023-01-15T05:14:21;1.63;;;1.07;;
12972;SDS011;6551;51.056;9.466;2023-01-15T05:16:46;2.60;;;1.43;;
12972;SDS011;6551;51.056;9.466;2023-01-15T05:19:14;1.40;;;1.10;;
12972;SDS011;6551;51.056;9.466;2023-01-15T05:21:42;3.07;;;0.57;;
12972;SDS011;6551;51.056;9.466;2023-01-15T05:24:12;1.93;;;1.10;;
12972;SDS011;6551;51.056;9.466;2023-01-15T05:26:41;2.17;;;0.93;;
12972;SDS011;6551;51.056;9.466;2023-01-15T05:29:12;0.87;;;0.50;;
12972;SDS011;6551;51.056;9.466;2023-01-15T05:31:40;1.83;;;0.60;;
12972;SDS011;6551;51.056;9.466;2023-01-15T05:34:09;2.63;;;2.23;;
12972;SDS011;6551;51.056;9.466;2023-01-15T05:36:36;3.37;;;2.07;;
12972;SDS011;6551;51.056;9.466;2023-01-15T05:39:02;2.63;;;1.97;;
12972;SDS011;6551;51.056;9.466;2023-01-15T05:41:29;1.90;;;1.27;;
12972;SDS011;6551;51.056;9.466;2023-01-15T05:44:13;3.73;;;2.40;;
12972;SDS011;6551;51.056;9.466;2023-01-15T05:46:46;2.07;;;1.40;;
12972;SDS011;6551;51.056;9.466;2023-01-15T05:49:15;4.40;;;1.30;;
12972;SDS011;6551;51.056;9.466;2023-01-15T05:51:44;2.37;;;1.40;;
12972;SDS011;6551;51.056;9.466;2023-01-15T05:54:14;8.67;;;6.13;;
12972;SDS011;6551;51.056;9.466;2023-01-15T05:56:44;7.83;;;5.03;;
12972;SDS011;6551;51.056;9.466;2023-01-15T05:59:12;5.73;;;3.60;;
12972;SDS011;6551;51.056;9.466;2023-01-15T06:01:39;3.77;;;2.27;;
12972;SDS011;6551;51.056;9.466;2023-01-15T06:04:05;2.33;;;1.27;;
12972;SDS011;6551;51.056;9.466;2023-01-15T06:06:32;0.63;;;0.40;;
12972;SDS011;6551;51.056;9.466;2023-01-15T06:08:59;1.23;;;0.50;;
12972;SDS011;6551;51.056;9.466;2023-01-15T06:11:27;3.70;;;0.83;;
12972;SDS011;6551;51.056;9.466;2023-01-15T06:13:53;0.63;;;0.40;;
12972;SDS011;6551;51.056;9.466;2023-01-15T06:16:21;3.40;;;1.30;;
12972;SDS011;6551;51.056;9.466;2023-01-15T06:18:47;4.33;;;1.60;;
12972;SDS011;6551;51.056;9.466;2023-01-15T06:21:14;1.10;;;0.70;;
12972;SDS011;6551;51.056;9.466;2023-01-15T06:23:41;1.60;;;1.07;;
12972;SDS011;6551;51.056;9.466;2023-01-15T06:26:10;3.23;;;0.70;;
12972;SDS011;6551;51.056;9.466;2023-01-15T06:28:40;0.87;;;0.60;;
12972;SDS011;6551;51.056;9.466;2023-01-15T06:31:08;1.17;;;0.40;;
12972;SDS011;6551;51.056;9.466;2023-01-15T06:33:38;2.07;;;0.80;;
12972;SDS011;6551;51.056;9.466;2023-01-15T06:36:06;6.07;;;2.60;;
12972;SDS011;6551;51.056;9.466;2023-01-15T06:38:35;7.47;;;3.57;;
12972;SDS011;6551;51.056;9.466;2023-01-15T06:41:02;1.07;;;0.73;;
12972;SDS011;6551;51.056;9.466;2023-01-15T06:43:55;3.13;;;2.10;;
12972;SDS011;6551;51.056;9.466;2023-01-15T06:46:43;1.87;;;1.03;;
12972;SDS011;6551;51.056;9.466;2023-01-15T06:49:29;3.07;;;1.27;;
12972;SDS011;6551;51.056;9.466;2023-01-15T06:51:56;1.40;;;0.63;;
12972;SDS011;6551;51.056;9.466;2023-01-15T06:54:22;1.50;;;0.60;;
12972;SDS011;6551;51.056;9.466;2023-01-15T06:56:50;1.17;;;0.70;;
12972;SDS011;6551;51.056;9.466;2023-01-15T06:59:16;3.10;;;0.90;;
12972;SDS011;6551;51.056;9.466;2023-01-15T07:01:44;0.97;;;0.40;;
12972;SDS011;6551;51.056;9.466;2023-01-15T07:04:13;1.03;;;0.50;;
12972;SDS011;6551;51.056;9.466;2023-01-15T07:06:40;0.67;;;0.40;;
12972;SDS011;6551;51.056;9.466;2023-01-15T07:09:06;0.87;;;0.50;;
12972;SDS011;6551;51.056;9.466;2023-01-15T07:11:32;0.70;;;0.40;;
12972;SDS011;6551;51.056;9.466;2023-01-15T07:13:59;0.57;;;0.30;;
12972;SDS011;6551;51.056;9.466;2023-01-15T07:16:32;0.43;;;0.30;;
12972;SDS011;6551;51.056;9.466;2023-01-15T07:18:59;0.60;;;0.47;;
12972;SDS011;6551;51.056;9.466;2023-01-15T07:21:27;3.47;;;0.60;;
12972;SDS011;6551;51.056;9.466;2023-01-15T07:23:57;1.23;;;0.40;;
12972;SDS011;6551;51.056;9.466;2023-01-15T07:26:26;0.67;;;0.60;;
12972;SDS011;6551;51.056;9.466;2023-01-15T07:28:52;1.57;;;0.50;;
12972;SDS011;6551;51.056;9.466;2023-01-15T07:31:18;0.30;;;0.27;;
12972;SDS011;6551;51.056;9.466;2023-01-15T07:33:44;0.60;;;0.30;;
12972;SDS011;6551;51.056;9.466;2023-01-15T07:36:10;1.23;;;0.87;;
12972;SDS011;6551;51.056;9.466;2023-01-15T07:38:37;0.87;;;0.70;;
12972;SDS011;6551;51.056;9.466;2023-01-15T07:41:04;3.10;;;0.50;;
12972;SDS011;6551;51.056;9.466;2023-01-15T07:43:48;1.43;;;0.40;;
12972;SDS011;6551;51.056;9.466;2023-01-15T07:46:34;0.90;;;0.50;;
12972;SDS011;6551;51.056;9.466;2023-01-15T07:49:20;1.37;;;0.47;;
12972;SDS011;6551;51.056;9.466;2023-01-15T07:52:05;2.13;;;0.50;;
12972;SDS011;6551;51.056;9.466;2023-01-15T07:54:31;1.50;;;0.60;;
12972;SDS011;6551;51.056;9.466;2023-01-15T07:56:58;3.93;;;0.50;;
12972;SDS011;6551;51.056;9.466;2023-01-15T07:59:24;1.90;;;0.40;;
12972;SDS011;6551;51.056;9.466;2023-01-15T08:01:50;2.93;;;0.67;;
12972;SDS011;6551;51.056;9.466;2023-01-15T08:04:16;1.37;;;0.50;;
12972;SDS011;6551;51.056;9.466;2023-01-15T08:06:42;1.27;;;0.40;;
12972;SDS011;6551;51.056;9.466;2023-01-15T08:09:09;3.27;;;0.40;;
12972;SDS011;6551;51.056;9.466;2023-01-15T08:11:35;1.57;;;0.47;;
12972;SDS011;6551;51.056;9.466;2023-01-15T08:14:19;1.53;;;0.40;;
12972;SDS011;6551;51.056;9.466;2023-01-15T08:17:04;0.50;;;0.30;;
12972;SDS011;6551;51.056;9.466;2023-01-15T08:19:30;1.27;;;0.33;;
12972;SDS011;6551;51.056;9.466;2023-01-15T08:21:57;1.60;;;0.30;;
12972;SDS011;6551;51.056;9.466;2023-01-15T08:24:25;2.07;;;0.97;;
12972;SDS011;6551;51.056;9.466;2023-01-15T08:26:53;1.03;;;0.60;;
12972;SDS011;6551;51.056;9.466;2023-01-15T08:29:19;2.57;;;0.77;;
12972;SDS011;6551;51.056;9.466;2023-01-15T08:31:45;7.53;;;2.13;;
12972;SDS011;6551;51.056;9.466;2023-01-15T08:34:13;4.93;;;0.90;;
12972;SDS011;6551;51.056;9.466;2023-01-15T08:36:39;6.73;;;2.07;;
12972;SDS011;6551;51.056;9.466;2023-01-15T08:39:07;3.43;;;1.40;;
12972;SDS011;6551;51.056;9.466;2023-01-15T08:41:37;3.47;;;0.90;;
12972;SDS011;6551;51.056;9.466;2023-01-15T08:44:04;1.73;;;0.87;;
12972;SDS011;6551;51.056;9.466;2023-01-15T08:46:31;2.03;;;0.50;;
12972;SDS011;6551;51.056;9.466;2023-01-15T08:48:57;4.07;;;0.73;;
12972;SDS011;6551;51.056;9.466;2023-01-15T08:51:23;3.90;;;0.80;;
12972;SDS011;6551;51.056;9.466;2023-01-15T08:53:49;2.50;;;0.60;;
12972;SDS011;6551;51.056;9.466;2023-01-15T08:56:16;1.77;;;0.50;;
12972;SDS011;6551;51.056;9.466;2023-01-15T08:58:45;2.93;;;0.53;;
12972;SDS011;6551;51.056;9.466;2023-01-15T09:01:12;0.70;;;0.67;;
12972;SDS011;6551;51.056;9.466;2023-01-15T09:03:41;1.17;;;0.53;;
12972;SDS011;6551;51.056;9.466;2023-01-15T09:06:08;1.90;;;0.50;;
12972;SDS011;6551;51.056;9.466;2023-01-15T09:08:36;1.83;;;0.50;;
12972;SDS011;6551;51.056;9.466;2023-01-15T09:11:04;2.23;;;0.60;;
12972;SDS011;6551;51.056;9.466;2023-01-15T09:13:34;0.83;;;0.50;;
12972;SDS011;6551;51.056;9.466;2023-01-15T09:16:03;1.47;;;0.70;;
12972;SDS011;6551;51.056;9.466;2023-01-15T09:18:31;0.67;;;0.43;;
12972;SDS011;6551;51.056;9.466;2023-01-15T09:20:58;4.17;;;0.90;;
12972;SDS011;6551;51.056;9.466;2023-01-15T09:23:25;0.83;;;0.43;;
12972;SDS011;6551;51.056;9.466;2023-01-15T09:25:52;0.60;;;0.60;;
12972;SDS011;6551;51.056;9.466;2023-01-15T09:28:27;1.60;;;0.60;;
12972;SDS011;6551;51.056;9.466;2023-01-15T09:30:53;2.23;;;0.63;;
12972;SDS011;6551;51.056;9.466;2023-01-15T09:33:21;2.37;;;0.70;;
12972;SDS011;6551;51.056;9.466;2023-01-15T09:35:48;1.80;;;0.50;;
12972;SDS011;6551;51.056;9.466;2023-01-15T09:38:16;4.67;;;0.40;;
12972;SDS011;6551;51.056;9.466;2023-01-15T09:40:49;0.40;;;0.30;;
12972;SDS011;6551;51.056;9.466;2023-01-15T09:43:23;0.87;;;0.40;;
12972;SDS011;6551;51.056;9.466;2023-01-15T09:49:34;1.23;;;0.60;;
12972;SDS011;6551;51.056;9.466;2023-01-15T09:57:57;1.10;;;0.30;;
12972;SDS011;6551;51.056;9.466;2023-01-15T10:00:29;1.00;;;0.40;;
12972;SDS011;6551;51.056;9.466;2023-01-15T10:03:06;4.33;;;0.50;;
12972;SDS011;6551;51.056;9.466;2023-01-15T10:08:50;0.47;;;0.40;;
12972;SDS011;6551;51.056;9.466;2023-01-15T10:11:39;0.40;;;0.30;;
12972;SDS011;6551;51.056;9.466;2023-01-15T10:14:33;0.97;;;0.33;;
12972;SDS011;6551;51.056;9.466;2023-01-15T10:20:27;0.50;;;0.40;;
12972;SDS011;6551;51.056;9.466;2023-01-15T10:23:03;1.00;;;0.37;;
12972;SDS011;6551;51.056;9.466;2023-01-15T10:28:58;1.00;;;0.60;;
12972;SDS011;6551;51.056;9.466;2023-01-15T10:35:33;4.93;;;0.50;;
12972;SDS011;6551;51.056;9.466;2023-01-15T10:44:16;0.50;;;0.40;;
12972;SDS011;6551;51.056;9.466;2023-01-15T10:47:18;0.60;;;0.40;;
12972;SDS011;6551;51.056;9.466;2023-01-15T10:49:53;1.60;;;0.30;;
12972;SDS011;6551;51.056;9.466;2023-01-15T10:54:59;0.80;;;0.40;;
12972;SDS011;6551;51.056;9.466;2023-01-15T10:58:00;0.83;;;0.40;;
12972;SDS011;6551;51.056;9.466;2023-01-15T11:01:11;0.90;;;0.57;;
12972;SDS011;6551;51.056;9.466;2023-01-15T11:03:45;0.57;;;0.30;;
12972;SDS011;6551;51.056;9.466;2023-01-15T11:06:16;0.60;;;0.30;;
12972;SDS011;6551;51.056;9.466;2023-01-15T11:08:53;5.70;;;1.57;;
12972;SDS011;6551;51.056;9.466;2023-01-15T11:14:20;0.90;;;0.50;;
12972;SDS011;6551;51.056;9.466;2023-01-15T11:17:21;0.50;;;0.40;;
12972;SDS011;6551;51.056;9.466;2023-01-15T11:23:12;0.67;;;0.50;;
12972;SDS011;6551;51.056;9.466;2023-01-15T11:25:47;2.07;;;0.80;;
12972;SDS011;6551;51.056;9.466;2023-01-15T11:28:14;1.17;;;0.53;;
12972;SDS011;6551;51.056;9.466;2023-01-15T11:30:41;0.40;;;0.37;;
12972;SDS011;6551;51.056;9.466;2023-01-15T11:33:22;0.40;;;0.40;;
12972;SDS011;6551;51.056;9.466;2023-01-15T11:35:52;1.77;;;0.40;;
12972;SDS011;6551;51.056;9.466;2023-01-15T11:38:28;1.10;;;0.60;;
12972;SDS011;6551;51.056;9.466;2023-01-15T11:41:15;3.07;;;0.60;;
12972;SDS011;6551;51.056;9.466;2023-01-15T11:43:57;0.77;;;0.60;;
12972;SDS011;6551;51.056;9.466;2023-01-15T11:46:41;0.70;;;0.40;;
12972;SDS011;6551;51.056;9.466;2023-01-15T11:49:29;0.87;;;0.53;;
12972;SDS011;6551;51.056;9.466;2023-01-15T11:52:18;1.00;;;0.70;;
12972;SDS011;6551;51.056;9.466;2023-01-15T11:55:35;0.67;;;0.50;;
12972;SDS011;6551;51.056;9.466;2023-01-15T11:58:02;2.30;;;0.77;;
12972;SDS011;6551;51.056;9.466;2023-01-15T12:00:34;0.80;;;0.53;;
12972;SDS011;6551;51.056;9.466;2023-01-15T12:03:10;2.57;;;0.67;;
12972;SDS011;6551;51.056;9.466;2023-01-15T12:05:46;1.10;;;0.67;;
12972;SDS011;6551;51.056;9.466;2023-01-15T12:17:13;3.43;;;0.70;;
12972;SDS011;6551;51.056;9.466;2023-01-15T12:20:06;2.00;;;0.50;;
12972;SDS011;6551;51.056;9.466;2023-01-15T12:25:37;2.27;;;0.60;;
12972;SDS011;6551;51.056;9.466;2023-01-15T12:28:28;1.80;;;0.70;;
12972;SDS011;6551;51.056;9.466;2023-01-15T12:37:21;2.40;;;0.50;;
12972;SDS011;6551;51.056;9.466;2023-01-15T20:06:23;7.30;;;0.90;;
12972;SDS011;6551;51.056;9.466;2023-01-15T20:08:51;1.60;;;0.60;;
12972;SDS011;6551;51.056;9.466;2023-01-15T20:11:18;1.13;;;0.60;;
12972;SDS011;6551;51.056;9.466;2023-01-15T20:13:45;3.43;;;0.60;;
12972;SDS011;6551;51.056;9.466;2023-01-15T20:16:14;2.90;;;0.80;;
12972;SDS011;6551;51.056;9.466;2023-01-15T20:18:43;2.30;;;0.80;;
12972;SDS011;6551;51.056;9.466;2023-01-15T20:21:11;3.50;;;0.80;;
12972;SDS011;6551;51.056;9.466;2023-01-15T20:23:41;3.47;;;1.50;;
12972;SDS011;6551;51.056;9.466;2023-01-15T20:26:12;3.03;;;1.43;;
12972;SDS011;6551;51.056;9.466;2023-01-15T20:28:42;1.90;;;1.17;;
12972;SDS011;6551;51.056;9.466;2023-01-15T20:31:16;2.17;;;0.90;;
12972;SDS011;6551;51.056;9.466;2023-01-15T20:33:44;4.73;;;1.40;;
12972;SDS011;6551;51.056;9.466;2023-01-15T20:36:13;1.77;;;1.07;;
12972;SDS011;6551;51.056;9.466;2023-01-15T20:38:40;2.37;;;0.80;;
12972;SDS011;6551;51.056;9.466;2023-01-15T20:41:07;2.50;;;0.70;;
12972;SDS011;6551;51.056;9.466;2023-01-15T20:43:54;0.53;;;0.40;;
12972;SDS011;6551;51.056;9.466;2023-01-15T20:46:41;2.33;;;0.80;;
12972;SDS011;6551;51.056;9.466;2023-01-15T20:49:07;1.00;;;0.90;;
12972;SDS011;6551;51.056;9.466;2023-01-15T20:51:48;4.00;;;1.30;;
12972;SDS011;6551;51.056;9.466;2023-01-15T20:54:16;2.53;;;1.27;;
12972;SDS011;6551;51.056;9.466;2023-01-15T20:56:43;5.63;;;1.10;;
12972;SDS011;6551;51.056;9.466;2023-01-15T20:59:10;1.13;;;0.90;;
12972;SDS011;6551;51.056;9.466;2023-01-15T21:01:36;5.90;;;1.80;;
12972;SDS011;6551;51.056;9.466;2023-01-15T21:04:04;3.70;;;1.43;;
12972;SDS011;6551;51.056;9.466;2023-01-15T21:06:31;5.80;;;1.30;;
12972;SDS011;6551;51.056;9.466;2023-01-15T21:08:57;4.80;;;1.00;;
12972;SDS011;6551;51.056;9.466;2023-01-15T21:11:23;2.47;;;1.00;;
12972;SDS011;6551;51.056;9.466;2023-01-15T21:13:49;1.03;;;0.80;;
12972;SDS011;6551;51.056;9.466;2023-01-15T21:16:17;2.23;;;1.17;;
12972;SDS011;6551;51.056;9.466;2023-01-15T21:18:43;1.70;;;1.10;;
12972;SDS011;6551;51.056;9.466;2023-01-15T21:21:15;4.03;;;1.27;;
12972;SDS011;6551;51.056;9.466;2023-01-15T21:23:43;1.53;;;0.80;;
12972;SDS011;6551;51.056;9.466;2023-01-15T21:26:14;4.47;;;0.80;;
12972;SDS011;6551;51.056;9.466;2023-01-15T21:28:41;2.47;;;0.90;;
12972;SDS011;6551;51.056;9.466;2023-01-15T21:31:09;3.33;;;1.33;;
12972;SDS011;6551;51.056;9.466;2023-01-15T21:33:37;3.30;;;0.70;;
12972;SDS011;6551;51.056;9.466;2023-01-15T21:36:07;2.23;;;0.97;;
12972;SDS011;6551;51.056;9.466;2023-01-15T21:38:36;2.60;;;0.90;;
12972;SDS011;6551;51.056;9.466;2023-01-15T21:41:06;4.43;;;1.10;;
12972;SDS011;6551;51.056;9.466;2023-01-15T21:43:38;2.23;;;1.20;;
12972;SDS011;6551;51.056;9.466;2023-01-15T21:46:23;5.07;;;1.60;;
12972;SDS011;6551;51.056;9.466;2023-01-15T21:48:53;3.50;;;1.20;;
12972;SDS011;6551;51.056;9.466;2023-01-15T21:51:21;3.00;;;0.77;;
12972;SDS011;6551;51.056;9.466;2023-01-15T21:53:48;2.50;;;0.70;;
12972;SDS011;6551;51.056;9.466;2023-01-15T21:56:14;2.17;;;0.93;;
12972;SDS011;6551;51.056;9.466;2023-01-15T21:58:42;1.10;;;0.77;;
12972;SDS011;6551;51.056;9.466;2023-01-15T22:03:35;3.30;;;1.20;;
12972;SDS011;6551;51.056;9.466;2023-01-15T22:06:05;3.87;;;1.00;;
12972;SDS011;6551;51.056;9.466;2023-01-15T22:08:33;2.30;;;0.90;;
12972;SDS011;6551;51.056;9.466;2023-01-15T22:11:05;3.43;;;1.17;;
12972;SDS011;6551;51.056;9.466;2023-01-15T22:13:35;5.03;;;0.83;;
12972;SDS011;6551;51.056;9.466;2023-01-15T22:16:02;8.67;;;1.33;;
12972;SDS011;6551;51.056;9.466;2023-01-15T22:18:29;7.73;;;1.07;;
12972;SDS011;6551;51.056;9.466;2023-01-15T22:21:00;3.33;;;1.33;;
12972;SDS011;6551;51.056;9.466;2023-01-15T22:23:27;2.10;;;1.07;;
12972;SDS011;6551;51.056;9.466;2023-01-15T22:25:55;2.30;;;0.90;;
12972;SDS011;6551;51.056;9.466;2023-01-15T22:28:21;1.07;;;0.73;;
12972;SDS011;6551;51.056;9.466;2023-01-15T22:30:47;0.87;;;0.63;;
12972;SDS011;6551;51.056;9.466;2023-01-15T22:33:14;3.47;;;0.70;;
12972;SDS011;6551;51.056;9.466;2023-01-15T22:35:43;1.93;;;0.80;;
12972;SDS011;6551;51.056;9.466;2023-01-15T22:38:19;5.73;;;1.03;;
12972;SDS011;6551;51.056;9.466;2023-01-15T22:40:46;4.93;;;1.17;;
12972;SDS011;6551;51.056;9.466;2023-01-15T22:43:14;4.50;;;1.90;;
12972;SDS011;6551;51.056;9.466;2023-01-15T22:45:42;2.70;;;0.67;;
12972;SDS011;6551;51.056;9.466;2023-01-15T22:48:08;2.73;;;0.70;;
12972;SDS011;6551;51.056;9.466;2023-01-15T22:50:39;2.50;;;1.00;;
12972;SDS011;6551;51.056;9.466;2023-01-15T22:53:06;4.00;;;1.10;;
12972;SDS011;6551;51.056;9.466;2023-01-15T22:55:32;3.30;;;1.20;;
12972;SDS011;6551;51.056;9.466;2023-01-15T22:57:58;3.27;;;0.57;;
12972;SDS011;6551;51.056;9.466;2023-01-15T23:00:25;1.27;;;0.60;;
12972;SDS011;6551;51.056;9.466;2023-01-15T23:02:51;4.10;;;0.93;;
12972;SDS011;6551;51.056;9.466;2023-01-15T23:05:20;2.63;;;0.70;;
12972;SDS011;6551;51.056;9.466;2023-01-15T23:07:48;3.13;;;1.17;;
12972;SDS011;6551;51.056;9.466;2023-01-15T23:10:15;1.40;;;0.70;;
12972;SDS011;6551;51.056;9.466;2023-01-15T23:12:43;3.07;;;0.90;;
12972;SDS011;6551;51.056;9.466;2023-01-15T23:15:09;0.80;;;0.60;;
12972;SDS011;6551;51.056;9.466;2023-01-15T23:17:37;1.93;;;0.60;;
12972;SDS011;6551;51.056;9.466;2023-01-15T23:20:05;3.53;;;0.60;;
12972;SDS011;6551;51.056;9.466;2023-01-15T23:22:32;3.53;;;0.60;;
12972;SDS011;6551;51.056;9.466;2023-01-15T23:24:58;2.87;;;0.73;;
12972;SDS011;6551;51.056;9.466;2023-01-15T23:27:25;3.50;;;0.70;;
12972;SDS011;6551;51.056;9.466;2023-01-15T23:29:52;1.30;;;0.47;;
12972;SDS011;6551;51.056;9.466;2023-01-15T23:32:17;1.50;;;0.80;;
12972;SDS011;6551;51.056;9.466;2023-01-15T23:34:45;2.77;;;0.80;;
12972;SDS011;6551;51.056;9.466;2023-01-15T23:37:12;3.97;;;0.60;;
12972;SDS011;6551;51.056;9.466;2023-01-15T23:39:40;2.73;;;0.80;;
12972;SDS011;6551;51.056;9.466;2023-01-15T23:42:08;7.63;;;0.80;;
12972;SDS011;6551;51.056;9.466;2023-01-15T23:44:53;3.30;;;1.10;;
12972;SDS011;6551;51.056;9.466;2023-01-15T23:47:38;2.67;;;0.80;;
12972;SDS011;6551;51.056;9.466;2023-01-15T23:50:04;1.73;;;0.63;;
12972;SDS011;6551;51.056;9.466;2023-01-15T23:52:30;3.73;;;0.90;;
12972;SDS011;6551;51.056;9.466;2023-01-15T23:54:57;4.83;;;1.47;;
12972;SDS011;6551;51.056;9.466;2023-01-15T23:57:23;1.90;;;0.70;;
12972;SDS011;6551;51.056;9.466;2023-01-15T23:59:48;3.20;;;1.17;;
